AU-0036 weather

New Norcia airstrip
New Norcia, Western Australia, Australia

Public forecast

Using degrees Celsius for public forecast. Weather courtesy of forecast.io.

METAR (pilot weather report)

Closest report is RAAF Base Pearce, 43.3 nm (80.3 km) SSW. Retrieved 2019/03/19 15:00 UTC (3 minutes ago):

YPEA 191500Z AUTO 01005KT 9999 // NCD 22/19 Q1010

TAF (pilot weather forecast)

Closest forecast is RAAF Base Pearce, 43.3 nm (80.3 km) SSW. Retrieved 2019/03/19 12:00 UTC (3 hours ago):

TAF YPEA 191103Z 1912/2006 19003KT CAVOK FM191800 VRB03KT 9999 BKN005 FM192300 09003KT CAVOK